createdAt,value
2019-01-04T00:00:58.103Z,31.00
2019-01-04T00:01:57.955Z,35.00
2019-01-04T00:02:58.031Z,30.40
2019-01-04T00:03:58.073Z,24.10
2019-01-04T00:04:57.888Z,21.20
2019-01-04T00:05:57.833Z,25.90
2019-01-04T00:06:57.829Z,27.20
2019-01-04T00:07:57.802Z,33.10
2019-01-04T00:08:58.665Z,19.50
2019-01-04T00:09:57.760Z,19.40
2019-01-04T00:10:57.744Z,26.00
2019-01-04T00:11:57.725Z,24.60
2019-01-04T00:12:57.692Z,29.60
2019-01-04T00:13:57.766Z,23.90
2019-01-04T00:14:57.646Z,23.70
2019-01-04T00:15:57.607Z,22.90
2019-01-04T00:16:57.607Z,31.00
2019-01-04T00:17:57.569Z,25.90
2019-01-04T00:18:57.678Z,25.80
2019-01-04T00:19:57.689Z,39.90
2019-01-04T00:20:57.513Z,26.00
2019-01-04T00:21:57.465Z,24.70
2019-01-04T00:22:57.648Z,26.50
2019-01-04T00:23:57.408Z,30.00
2019-01-04T00:24:57.909Z,21.00
2019-01-04T00:25:57.545Z,26.40
2019-01-04T00:26:57.405Z,24.00
2019-01-04T00:27:57.346Z,31.40
2019-01-04T00:28:57.279Z,33.00
2019-01-04T00:29:57.303Z,34.80
2019-01-04T00:30:57.399Z,19.00
2019-01-04T00:31:57.227Z,26.30
2019-01-04T00:32:57.192Z,23.10
2019-01-04T00:33:57.178Z,18.50
2019-01-04T00:34:57.134Z,34.00
2019-01-04T00:35:57.173Z,21.20
2019-01-04T00:36:57.090Z,25.70
2019-01-04T00:37:57.099Z,28.40
2019-01-04T00:38:57.054Z,34.50
2019-01-04T00:39:57.010Z,22.50
2019-01-04T00:40:57.297Z,29.70
2019-01-04T00:41:57.000Z,25.60
2019-01-04T00:42:56.969Z,39.40
2019-01-04T00:43:56.941Z,22.10
2019-01-04T00:44:56.906Z,26.50
2019-01-04T00:45:56.980Z,27.80
2019-01-04T00:46:57.057Z,46.00
2019-01-04T00:47:57.117Z,143.50
2019-01-04T00:48:57.157Z,86.60
2019-01-04T00:49:57.353Z,78.70
2019-01-04T00:50:58.596Z,73.60
2019-01-04T00:51:57.717Z,48.90
2019-01-04T00:52:57.062Z,62.50
2019-01-04T00:53:56.884Z,63.00
2019-01-04T00:54:57.486Z,72.90
2019-01-04T00:55:56.936Z,54.40
2019-01-04T00:56:56.802Z,48.70
2019-01-04T00:57:56.813Z,41.70
2019-01-04T00:58:56.696Z,26.70
2019-01-04T00:59:57.168Z,46.70
2019-01-04T01:00:57.266Z,48.30
2019-01-04T01:01:56.601Z,125.30
2019-01-04T01:02:57.149Z,116.40
2019-01-04T01:03:56.519Z,124.30
2019-01-04T01:04:57.418Z,151.00
2019-01-04T01:05:56.617Z,103.20
2019-01-04T01:06:56.397Z,136.00
2019-01-04T01:07:56.333Z,78.00
2019-01-04T01:08:56.759Z,116.50
2019-01-04T01:09:56.633Z,99.50
2019-01-04T01:10:56.904Z,103.90
2019-01-04T01:11:56.429Z,97.10
2019-01-04T01:12:56.841Z,94.10
2019-01-04T01:13:57.579Z,93.70
2019-01-04T01:14:56.746Z,88.70
2019-01-04T01:15:56.561Z,87.10
2019-01-04T01:16:56.353Z,73.60
2019-01-04T01:17:56.400Z,67.40
2019-01-04T01:18:57.182Z,59.80
2019-01-04T01:19:56.161Z,53.30
2019-01-04T01:20:56.032Z,46.20
2019-01-04T01:21:57.021Z,77.00
2019-01-04T01:22:55.974Z,62.40
2019-01-04T01:23:56.984Z,114.70
2019-01-04T01:24:56.306Z,83.80
2019-01-04T01:25:56.821Z,61.30
2019-01-04T01:26:56.880Z,68.20
2019-01-04T01:27:56.049Z,69.10
2019-01-04T01:28:56.079Z,72.70
2019-01-04T01:29:56.022Z,106.40
2019-01-04T01:30:56.349Z,109.10
2019-01-04T01:31:56.321Z,111.20
2019-01-04T01:32:55.946Z,66.90
2019-01-04T01:33:55.899Z,90.00
2019-01-04T01:34:56.466Z,91.60
2019-01-04T01:35:55.813Z,76.40
2019-01-04T01:36:56.309Z,80.50
2019-01-04T01:37:55.679Z,78.70
2019-01-04T01:38:55.825Z,74.60
2019-01-04T01:39:55.607Z,82.40
2019-01-04T01:40:56.965Z,54.80
2019-01-04T01:41:55.548Z,52.40
2019-01-04T01:42:55.545Z,52.60
2019-01-04T01:43:55.477Z,58.50
2019-01-04T01:44:55.403Z,52.90
2019-01-04T01:45:55.425Z,67.20
2019-01-04T01:46:55.890Z,80.00
2019-01-04T01:47:55.397Z,64.40
2019-01-04T01:48:55.322Z,49.70
2019-01-04T01:49:55.288Z,34.20
2019-01-04T01:50:55.296Z,39.60
2019-01-04T01:51:55.382Z,24.90
2019-01-04T01:52:55.735Z,24.30
2019-01-04T01:53:55.192Z,23.80
2019-01-04T01:54:55.224Z,18.90
2019-01-04T01:55:55.619Z,31.30
2019-01-04T01:57:56.497Z,42.00
2019-01-04T01:58:55.165Z,32.90
2019-01-04T01:59:55.025Z,36.10
2019-01-04T02:00:55.023Z,37.80
2019-01-04T02:01:55.074Z,38.40
2019-01-04T02:02:55.200Z,29.20
2019-01-04T02:03:54.954Z,25.70
2019-01-04T02:04:54.994Z,41.00
2019-01-04T02:05:54.943Z,33.80
2019-01-04T02:06:54.847Z,32.80
2019-01-04T02:07:55.094Z,37.10
2019-01-04T02:08:54.811Z,22.30
2019-01-04T02:09:54.868Z,31.70
2019-01-04T02:10:54.775Z,21.40
2019-01-04T02:11:54.757Z,33.00
2019-01-04T02:12:54.756Z,20.50
2019-01-04T02:13:55.057Z,37.30
2019-01-04T02:14:54.634Z,18.80
2019-01-04T02:15:55.154Z,31.40
2019-01-04T02:16:54.837Z,26.40
2019-01-04T02:17:54.610Z,30.10
2019-01-04T02:18:54.736Z,20.90
2019-01-04T02:19:54.600Z,28.80
2019-01-04T02:20:54.552Z,33.60
2019-01-04T02:21:54.498Z,32.10
2019-01-04T02:22:54.496Z,26.10
2019-01-04T02:23:54.441Z,23.30
2019-01-04T02:24:54.763Z,36.20
2019-01-04T02:25:55.013Z,33.80
2019-01-04T02:26:54.654Z,25.20
2019-01-04T02:27:54.348Z,31.00
2019-01-04T02:28:54.311Z,26.60
2019-01-04T02:29:54.308Z,22.90
2019-01-04T02:30:54.500Z,23.00
2019-01-04T02:31:54.233Z,24.50
2019-01-04T02:32:54.204Z,27.10
2019-01-04T02:33:54.213Z,27.50
2019-01-04T02:34:54.170Z,19.20
2019-01-04T02:35:54.247Z,24.90
2019-01-04T02:36:54.121Z,23.10
2019-01-04T02:37:54.076Z,21.60
2019-01-04T02:38:54.100Z,17.60
2019-01-04T02:39:54.035Z,12.00
2019-01-04T02:40:54.103Z,17.70
2019-01-04T02:41:54.143Z,23.00
2019-01-04T02:42:54.030Z,17.00
2019-01-04T02:43:53.951Z,20.00
2019-01-04T02:44:53.896Z,19.50
2019-01-04T02:45:53.933Z,16.10
2019-01-04T02:46:54.105Z,13.20
2019-01-04T02:47:53.834Z,11.50
2019-01-04T02:48:53.862Z,11.50
2019-01-04T02:49:53.796Z,13.70
2019-01-04T02:50:53.746Z,12.20
2019-01-04T02:51:53.823Z,10.10
2019-01-04T02:52:53.698Z,12.60
2019-01-04T02:53:53.684Z,13.60
2019-01-04T02:54:53.640Z,20.10
2019-01-04T02:55:53.620Z,18.80
2019-01-04T02:56:53.718Z,8.90
2019-01-04T02:57:53.604Z,15.50
2019-01-04T02:58:53.546Z,7.70
2019-01-04T02:59:53.505Z,20.90
2019-01-04T03:00:53.499Z,22.50
2019-01-04T03:01:53.492Z,7.30
2019-01-04T03:02:53.483Z,10.00
2019-01-04T03:03:53.422Z,15.20
2019-01-04T03:04:53.387Z,11.10
2019-01-04T03:05:53.357Z,9.80
2019-01-04T03:06:53.349Z,12.20
2019-01-04T03:07:53.326Z,7.20
2019-01-04T03:08:53.390Z,12.20
2019-01-04T03:09:53.290Z,8.10
2019-01-04T03:10:53.247Z,10.00
2019-01-04T03:11:53.202Z,12.40
2019-01-04T03:12:53.187Z,12.50
2019-01-04T03:13:53.266Z,5.50
2019-01-04T03:14:53.205Z,6.90
2019-01-04T03:15:53.124Z,8.60
2019-01-04T03:16:53.100Z,6.00
2019-01-04T03:17:53.078Z,12.80
2019-01-04T03:18:53.169Z,11.30
2019-01-04T03:19:53.002Z,14.70
2019-01-04T03:20:52.970Z,8.50
2019-01-04T03:21:53.029Z,5.70
2019-01-04T03:22:52.939Z,7.10
2019-01-04T03:23:52.982Z,9.80
2019-01-04T03:24:52.994Z,8.10
2019-01-04T03:25:52.861Z,8.00
2019-01-04T03:26:52.830Z,5.80
2019-01-04T03:27:52.808Z,8.10
2019-01-04T03:28:52.791Z,13.10
2019-01-04T03:29:52.886Z,6.50
2019-01-04T03:30:54.309Z,9.60
2019-01-04T03:31:52.700Z,7.90
2019-01-04T03:32:52.695Z,9.10
2019-01-04T03:33:52.645Z,4.00
2019-01-04T03:34:52.734Z,7.40
2019-01-04T03:35:52.599Z,6.20
2019-01-04T03:36:52.585Z,10.30
2019-01-04T03:37:52.554Z,6.80
2019-01-04T03:38:52.529Z,4.80
2019-01-04T03:39:52.608Z,9.70
2019-01-04T03:40:52.477Z,8.50
2019-01-04T03:41:52.455Z,8.00
2019-01-04T03:42:52.438Z,7.90
2019-01-04T03:43:52.392Z,6.70
2019-01-04T03:44:52.361Z,5.50
2019-01-04T03:45:52.451Z,14.70
2019-01-04T03:46:52.540Z,6.60
2019-01-04T03:47:52.301Z,11.20
2019-01-04T03:48:52.292Z,9.20
2019-01-04T03:49:52.285Z,9.70
2019-01-04T03:50:52.328Z,8.30
2019-01-04T03:51:52.227Z,14.60
2019-01-04T03:52:52.169Z,17.10
2019-01-04T03:53:52.162Z,9.50
2019-01-04T03:54:52.123Z,5.80
2019-01-04T03:55:52.179Z,3.90
2019-01-04T03:56:52.160Z,9.20
2019-01-04T03:57:52.030Z,12.40
2019-01-04T03:58:52.046Z,5.30
2019-01-04T03:59:52.002Z,9.30
2019-01-04T04:00:51.972Z,7.40
2019-01-04T04:01:51.984Z,5.60
2019-01-04T04:02:52.026Z,7.40
2019-01-04T04:03:51.883Z,11.60
2019-01-04T04:04:51.883Z,7.30
2019-01-04T04:05:51.844Z,5.60
2019-01-04T04:06:51.793Z,9.40
2019-01-04T04:07:51.878Z,12.40
2019-01-04T04:08:51.786Z,7.30
2019-01-04T04:09:51.696Z,7.50
2019-01-04T04:10:51.706Z,10.00
2019-01-04T04:11:51.683Z,12.10
2019-01-04T04:12:51.766Z,9.30
2019-01-04T04:13:51.643Z,6.60
2019-01-04T04:14:51.614Z,7.60
2019-01-04T04:15:51.579Z,5.30
2019-01-04T04:16:51.565Z,5.80
2019-01-04T04:17:51.627Z,6.90
2019-01-04T04:18:51.530Z,6.70
2019-01-04T04:19:51.488Z,8.30
2019-01-04T04:20:51.455Z,6.70
2019-01-04T04:21:53.449Z,3.80
2019-01-04T04:22:51.394Z,4.90
2019-01-04T04:23:51.470Z,4.80
2019-01-04T04:24:51.385Z,8.90
2019-01-04T04:25:51.350Z,4.10
2019-01-04T04:26:52.458Z,6.00
2019-01-04T04:27:52.764Z,11.20
2019-01-04T04:28:51.417Z,8.10
2019-01-04T04:29:51.206Z,6.50
2019-01-04T04:30:51.200Z,7.50
2019-01-04T04:31:51.172Z,4.80
2019-01-04T04:32:51.151Z,7.50
2019-01-04T04:33:51.190Z,9.70
2019-01-04T04:34:51.197Z,14.10
2019-01-04T04:35:51.171Z,6.70
2019-01-04T04:36:51.034Z,8.60
2019-01-04T04:37:51.015Z,6.30
2019-01-04T04:38:50.988Z,6.80
2019-01-04T04:39:51.072Z,7.80
2019-01-04T04:40:51.020Z,5.10
2019-01-04T04:41:50.902Z,4.20
2019-01-04T04:42:50.865Z,7.80
2019-01-04T04:43:50.834Z,5.90
2019-01-04T04:44:50.931Z,9.40
2019-01-04T04:45:50.802Z,5.80
2019-01-04T04:46:50.796Z,7.60
2019-01-04T04:47:50.751Z,6.90
2019-01-04T04:48:50.731Z,2.70
2019-01-04T04:49:50.824Z,4.00
2019-01-04T04:50:50.773Z,4.60
2019-01-04T04:51:50.644Z,10.30
2019-01-04T04:52:50.686Z,3.90
2019-01-04T04:53:50.605Z,8.50
2019-01-04T04:54:50.649Z,9.10
2019-01-04T04:55:50.578Z,5.60
2019-01-04T04:56:50.526Z,3.10
2019-01-04T04:57:50.491Z,4.10
2019-01-04T04:58:50.453Z,5.30
2019-01-04T04:59:50.444Z,6.70
2019-01-04T05:00:50.496Z,4.20
2019-01-04T05:01:50.395Z,3.40
2019-01-04T05:02:50.375Z,5.90
2019-01-04T05:03:50.325Z,7.30
2019-01-04T05:04:50.408Z,6.90
2019-01-04T05:05:50.387Z,4.80
2019-01-04T05:06:50.404Z,8.20
2019-01-04T05:07:50.210Z,4.00
2019-01-04T05:08:50.216Z,6.80
2019-01-04T05:09:50.226Z,6.10
2019-01-04T05:10:50.132Z,4.30
2019-01-04T05:11:50.167Z,3.70
2019-01-04T05:12:50.204Z,5.00
2019-01-04T05:13:50.083Z,7.80
2019-01-04T05:14:50.053Z,7.60
2019-01-04T05:15:50.020Z,9.50
2019-01-04T05:16:50.065Z,10.70
2019-01-04T05:17:50.070Z,4.50
2019-01-04T05:18:49.939Z,7.50
2019-01-04T05:19:49.971Z,4.50
2019-01-04T05:20:49.886Z,6.20
2019-01-04T05:21:49.867Z,12.60
2019-01-04T05:22:50.204Z,3.10
2019-01-04T05:23:49.820Z,8.90
2019-01-04T05:24:49.801Z,6.90
2019-01-04T05:25:49.758Z,7.50
2019-01-04T05:26:49.723Z,12.30
2019-01-04T05:27:49.822Z,5.40
2019-01-04T05:28:49.683Z,9.90
2019-01-04T05:29:49.674Z,5.20
2019-01-04T05:30:49.624Z,12.20
2019-01-04T05:31:49.624Z,56.10
2019-01-04T05:32:49.678Z,24.00
2019-01-04T05:33:49.576Z,30.70
2019-01-04T05:34:49.567Z,39.30
2019-01-04T05:35:49.514Z,29.60
2019-01-04T05:36:49.474Z,30.80
2019-01-04T05:37:49.445Z,18.40
2019-01-04T05:38:49.542Z,13.70
2019-01-04T05:39:49.406Z,23.80
2019-01-04T05:40:49.384Z,31.30
2019-01-04T05:41:49.331Z,19.60
2019-01-04T05:42:49.328Z,18.80
2019-01-04T05:43:49.335Z,19.30
2019-01-04T05:44:49.369Z,15.10
2019-01-04T05:45:49.216Z,16.50
2019-01-04T05:46:49.219Z,17.80
2019-01-04T05:47:49.169Z,19.60
2019-01-04T05:48:49.234Z,13.80
2019-01-04T05:49:49.229Z,16.40
2019-01-04T05:50:49.413Z,10.00
2019-01-04T05:51:49.147Z,15.70
2019-01-04T05:52:49.044Z,12.30
2019-01-04T05:53:49.090Z,10.10
2019-01-04T05:54:49.139Z,18.50
2019-01-04T05:55:48.983Z,12.90
2019-01-04T05:56:48.962Z,18.60
2019-01-04T05:57:48.939Z,13.10
2019-01-04T05:58:48.904Z,10.00
2019-01-04T05:59:48.985Z,9.10
2019-01-04T06:00:48.832Z,19.40
2019-01-04T06:01:48.854Z,7.20
2019-01-04T06:02:48.808Z,6.00
2019-01-04T06:03:48.783Z,4.80
2019-01-04T06:04:48.857Z,12.50
2019-01-04T06:05:48.761Z,6.40
2019-01-04T06:06:48.693Z,6.00
2019-01-04T06:07:48.664Z,4.80
2019-01-04T06:08:48.660Z,4.70
2019-01-04T06:09:48.755Z,9.70
2019-01-04T06:10:48.588Z,8.60
2019-01-04T06:11:48.569Z,6.10
2019-01-04T06:12:48.532Z,4.50
2019-01-04T06:13:48.505Z,6.80
2019-01-04T06:14:48.477Z,5.90
2019-01-04T06:15:48.555Z,8.80
2019-01-04T06:16:48.435Z,2.60
2019-01-04T06:17:48.454Z,6.40
2019-01-04T06:18:48.387Z,3.50
2019-01-04T06:19:48.334Z,4.80
2019-01-04T06:20:48.337Z,6.50
2019-01-04T06:21:48.397Z,7.10
2019-01-04T06:22:48.285Z,5.20
2019-01-04T06:23:48.258Z,4.60
2019-01-04T06:24:48.396Z,4.10
2019-01-04T06:25:49.351Z,3.30
2019-01-04T06:26:48.309Z,5.70
2019-01-04T06:27:48.132Z,4.60
2019-01-04T06:28:48.123Z,7.10
2019-01-04T06:29:48.079Z,5.80
2019-01-04T06:30:48.067Z,3.30
2019-01-04T06:31:50.151Z,3.30
2019-01-04T06:32:48.018Z,13.50
2019-01-04T06:33:47.995Z,3.30
2019-01-04T06:34:47.972Z,7.40
2019-01-04T06:35:49.521Z,5.40
2019-01-04T06:36:47.913Z,8.40
2019-01-04T06:37:47.994Z,3.00
2019-01-04T06:38:47.861Z,5.80
2019-01-04T06:39:49.226Z,3.70
2019-01-04T06:40:47.785Z,3.80
2019-01-04T06:41:47.774Z,6.40
2019-01-04T06:42:47.858Z,4.50
2019-01-04T06:43:47.714Z,3.90
2019-01-04T06:44:47.671Z,6.50
2019-01-04T06:45:47.820Z,4.10
2019-01-04T06:46:47.694Z,6.90
2019-01-04T06:47:47.714Z,3.70
2019-01-04T06:48:47.584Z,3.50
2019-01-04T06:49:47.564Z,8.00
2019-01-04T06:50:47.527Z,5.80
2019-01-04T06:51:47.525Z,8.60
2019-01-04T06:52:47.541Z,4.10
2019-01-04T06:53:47.651Z,3.80
2019-01-04T06:54:47.432Z,4.60
2019-01-04T06:55:47.464Z,6.10
2019-01-04T06:56:47.377Z,10.30
2019-01-04T06:57:47.361Z,4.50
2019-01-04T06:58:47.316Z,5.90
2019-01-04T06:59:47.407Z,5.00
2019-01-04T07:00:47.358Z,6.90
2019-01-04T07:01:47.228Z,4.30
2019-01-04T07:02:47.245Z,4.40
2019-01-04T07:03:47.198Z,6.60
2019-01-04T07:04:47.268Z,5.60
2019-01-04T07:05:47.145Z,4.70
2019-01-04T07:06:47.118Z,4.50
2019-01-04T07:07:47.120Z,7.20
2019-01-04T07:08:47.049Z,5.00
2019-01-04T07:09:47.179Z,8.70
2019-01-04T07:10:47.006Z,4.00
2019-01-04T07:11:47.015Z,2.80
2019-01-04T07:12:46.981Z,3.40
2019-01-04T07:13:46.915Z,7.00
2019-01-04T07:14:46.993Z,5.90
2019-01-04T07:15:46.909Z,4.30
2019-01-04T07:16:46.902Z,8.60
2019-01-04T07:17:47.286Z,5.20
2019-01-04T07:18:46.832Z,5.00
2019-01-04T07:19:46.895Z,6.00
2019-01-04T07:20:46.751Z,4.90
2019-01-04T07:21:46.724Z,3.50
2019-01-04T07:22:46.715Z,4.20
2019-01-04T07:23:46.707Z,4.30
2019-01-04T07:24:46.759Z,6.90
2019-01-04T07:25:46.643Z,6.70
2019-01-04T07:26:46.591Z,2.30
2019-01-04T07:27:46.554Z,3.10
2019-01-04T07:28:46.534Z,7.50
2019-01-04T07:29:46.520Z,3.70
2019-01-04T07:30:46.597Z,9.20
2019-01-04T07:31:46.470Z,2.80
2019-01-04T07:32:46.428Z,3.50
2019-01-04T07:33:46.406Z,2.20
2019-01-04T07:34:46.382Z,6.30
2019-01-04T07:35:46.350Z,5.00
2019-01-04T07:36:46.405Z,12.60
2019-01-04T07:37:46.333Z,5.20
2019-01-04T07:38:46.302Z,8.30
2019-01-04T07:39:46.230Z,10.70
2019-01-04T07:40:46.225Z,6.10
2019-01-04T07:41:46.322Z,4.60
2019-01-04T07:42:46.177Z,2.40
2019-01-04T07:43:46.140Z,3.60
2019-01-04T07:44:46.105Z,4.80
2019-01-04T07:45:46.101Z,3.00
2019-01-04T07:46:46.240Z,5.00
2019-01-04T07:47:46.076Z,3.10
2019-01-04T07:48:45.998Z,5.10
2019-01-04T07:49:45.949Z,5.20
2019-01-04T07:50:45.944Z,4.00
2019-01-04T07:51:46.026Z,7.40
2019-01-04T07:52:45.894Z,4.00
2019-01-04T07:53:45.876Z,7.40
2019-01-04T07:54:45.830Z,5.70
2019-01-04T07:55:45.818Z,7.50
2019-01-04T07:56:45.923Z,4.90
2019-01-04T07:57:45.754Z,9.00
2019-01-04T07:58:45.730Z,4.20
2019-01-04T07:59:45.742Z,6.20
2019-01-04T08:00:45.657Z,2.80
2019-01-04T08:01:45.645Z,6.30
2019-01-04T08:02:45.717Z,4.50
2019-01-04T08:03:45.604Z,7.60
2019-01-04T08:04:45.593Z,2.80
2019-01-04T08:05:45.544Z,4.10
2019-01-04T08:06:45.601Z,6.10
2019-01-04T08:07:45.603Z,4.50
2019-01-04T08:08:45.468Z,4.70
2019-01-04T08:09:45.452Z,7.70
2019-01-04T08:10:47.188Z,7.30
2019-01-04T08:11:45.381Z,3.30
2019-01-04T08:12:45.385Z,5.10
2019-01-04T08:13:45.444Z,3.80
2019-01-04T08:14:45.326Z,4.20
2019-01-04T08:15:45.317Z,2.40
2019-01-04T08:16:45.277Z,4.90
2019-01-04T08:17:45.217Z,5.60
2019-01-04T08:18:45.292Z,6.40
2019-01-04T08:19:45.177Z,2.60
2019-01-04T08:20:45.154Z,4.30
2019-01-04T08:21:45.119Z,4.30
2019-01-04T08:22:45.113Z,4.30
2019-01-04T08:23:45.185Z,3.80
2019-01-04T08:24:45.059Z,3.90
2019-01-04T08:25:45.019Z,7.10
2019-01-04T08:26:44.989Z,7.00
2019-01-04T08:27:44.951Z,3.70
2019-01-04T08:28:45.032Z,4.10
2019-01-04T08:29:44.920Z,5.30
2019-01-04T08:30:44.877Z,6.30
2019-01-04T08:31:44.841Z,8.20
2019-01-04T08:32:44.870Z,3.70
2019-01-04T08:33:44.931Z,6.60
2019-01-04T08:34:44.799Z,3.20
2019-01-04T08:35:44.764Z,3.90
2019-01-04T08:36:44.723Z,4.70
2019-01-04T08:37:44.693Z,5.90
2019-01-04T08:38:44.755Z,4.30
2019-01-04T08:39:44.793Z,4.50
2019-01-04T08:40:44.646Z,1.70
2019-01-04T08:41:44.634Z,4.80
2019-01-04T08:42:44.566Z,4.10
2019-01-04T08:43:44.551Z,5.20
2019-01-04T08:44:44.616Z,5.80
2019-01-04T08:45:44.483Z,5.10
2019-01-04T08:46:44.450Z,5.20
2019-01-04T08:47:44.430Z,6.50
2019-01-04T08:48:44.455Z,5.90
2019-01-04T08:49:44.412Z,9.50
2019-01-04T08:50:44.449Z,2.20
2019-01-04T08:51:44.369Z,3.90
2019-01-04T08:52:44.317Z,10.00
2019-01-04T08:53:44.288Z,4.00
2019-01-04T08:54:44.263Z,3.80
2019-01-04T08:55:44.310Z,5.30
2019-01-04T08:56:44.204Z,7.60
2019-01-04T08:57:44.158Z,6.00
2019-01-04T08:58:44.165Z,6.20
2019-01-04T08:59:44.111Z,5.70
2019-01-04T09:00:44.178Z,2.20
2019-01-04T09:01:44.049Z,1.50
2019-01-04T09:02:44.022Z,8.30
2019-01-04T09:03:44.002Z,2.70
2019-01-04T09:04:44.015Z,4.20
2019-01-04T09:05:44.030Z,3.70
2019-01-04T09:06:43.913Z,6.00
2019-01-04T09:07:43.890Z,7.00
2019-01-04T09:08:43.880Z,5.90
2019-01-04T09:09:43.849Z,4.60
2019-01-04T09:10:43.883Z,3.60
2019-01-04T09:11:43.931Z,5.10
2019-01-04T09:12:43.754Z,6.40
2019-01-04T09:13:43.762Z,2.30
2019-01-04T09:14:43.713Z,6.70
2019-01-04T09:15:43.721Z,3.40
2019-01-04T09:16:43.812Z,4.90
2019-01-04T09:17:43.614Z,4.40
2019-01-04T09:18:43.604Z,3.00
2019-01-04T09:19:43.578Z,5.80
2019-01-04T09:20:43.536Z,4.40
2019-01-04T09:21:43.652Z,3.60
2019-01-04T09:22:43.514Z,2.30
2019-01-04T09:23:43.497Z,2.60
2019-01-04T09:24:43.470Z,5.80
2019-01-04T09:25:43.430Z,9.40
2019-01-04T09:26:43.388Z,4.40
2019-01-04T09:27:43.481Z,3.10
2019-01-04T09:28:43.318Z,2.10
2019-01-04T09:29:43.305Z,2.00
2019-01-04T09:30:43.297Z,9.90
2019-01-04T09:31:43.264Z,4.70
2019-01-04T09:32:43.367Z,5.80
2019-01-04T09:33:43.233Z,10.00
2019-01-04T09:34:43.176Z,3.30
2019-01-04T09:35:43.173Z,4.60
2019-01-04T09:36:43.129Z,6.00
2019-01-04T09:37:43.231Z,5.60
2019-01-04T09:38:43.120Z,3.60
2019-01-04T09:39:43.061Z,4.30
2019-01-04T09:40:43.053Z,4.20
2019-01-04T09:41:42.990Z,2.00
2019-01-04T09:42:43.087Z,6.30
2019-01-04T09:43:42.913Z,5.30
2019-01-04T09:44:42.910Z,7.00
2019-01-04T09:45:42.881Z,2.30
2019-01-04T09:46:42.866Z,5.30
2019-01-04T09:47:42.889Z,3.20
2019-01-04T09:48:42.903Z,2.80
2019-01-04T09:49:44.325Z,3.40
2019-01-04T09:50:42.751Z,8.40
2019-01-04T09:51:44.371Z,5.00
2019-01-04T09:52:43.801Z,3.40
2019-01-04T09:53:43.992Z,2.70
2019-01-04T09:54:43.630Z,3.30
2019-01-04T09:55:42.649Z,2.60
2019-01-04T09:56:44.520Z,7.90
2019-01-04T09:57:44.303Z,4.30
2019-01-04T09:58:42.828Z,5.30
2019-01-04T09:59:44.940Z,2.10
2019-01-04T10:00:43.768Z,6.30
2019-01-04T10:01:44.006Z,3.20
2019-01-04T10:02:43.893Z,4.90
2019-01-04T10:03:44.284Z,5.30
2019-01-04T10:04:42.414Z,3.70
2019-01-04T10:05:42.507Z,5.90
2019-01-04T10:06:43.868Z,7.40
2019-01-04T10:07:42.373Z,3.20
2019-01-04T10:08:45.026Z,4.10
2019-01-04T10:09:42.251Z,2.00
2019-01-04T10:10:42.224Z,3.60
2019-01-04T10:11:42.333Z,3.50
2019-01-04T10:12:42.170Z,3.90
2019-01-04T10:13:42.148Z,5.70
2019-01-04T10:14:42.133Z,3.40
2019-01-04T10:15:42.105Z,3.30
2019-01-04T10:16:42.171Z,4.70
2019-01-04T10:17:42.059Z,2.20
2019-01-04T10:18:42.061Z,4.20
2019-01-04T10:19:41.993Z,5.60
2019-01-04T10:20:41.986Z,3.90
2019-01-04T10:21:41.981Z,7.80
2019-01-04T10:22:42.004Z,5.40
2019-01-04T10:23:41.864Z,3.70
2019-01-04T10:24:41.860Z,4.20
2019-01-04T10:25:41.828Z,4.00
2019-01-04T10:26:41.794Z,3.90
2019-01-04T10:27:41.860Z,5.70
2019-01-04T10:28:41.732Z,4.90
2019-01-04T10:29:41.711Z,3.20
2019-01-04T10:30:41.693Z,5.50
2019-01-04T10:31:41.647Z,6.70
2019-01-04T10:32:41.784Z,3.60
2019-01-04T10:33:41.631Z,3.70
2019-01-04T10:34:41.593Z,3.50
2019-01-04T10:35:41.554Z,7.70
2019-01-04T10:36:41.551Z,5.50
2019-01-04T10:37:41.603Z,7.20
2019-01-04T10:38:41.510Z,4.00
2019-01-04T10:39:41.448Z,3.40
2019-01-04T10:40:41.437Z,7.90
2019-01-04T10:41:41.388Z,5.50
2019-01-04T10:42:41.378Z,5.10
2019-01-04T10:43:41.444Z,6.50
2019-01-04T10:44:41.352Z,5.40
2019-01-04T10:45:41.297Z,2.20
2019-01-04T10:46:41.309Z,6.30
2019-01-04T10:47:41.219Z,7.50
2019-01-04T10:48:41.336Z,3.70
2019-01-04T10:49:41.201Z,7.40
2019-01-04T10:50:41.148Z,3.00
2019-01-04T10:51:41.175Z,6.10
2019-01-04T10:52:41.114Z,5.30
2019-01-04T10:53:41.071Z,5.40
2019-01-04T10:54:41.141Z,8.10
2019-01-04T10:55:41.019Z,5.60
2019-01-04T10:56:41.021Z,5.40
2019-01-04T10:57:40.962Z,3.20
2019-01-04T10:58:40.953Z,8.40
2019-01-04T10:59:41.010Z,4.30
2019-01-04T11:00:40.872Z,4.50
2019-01-04T11:01:40.869Z,4.20
2019-01-04T11:02:40.822Z,5.60
2019-01-04T11:03:40.810Z,6.90
2019-01-04T11:04:40.866Z,7.70
2019-01-04T11:05:40.755Z,3.10
2019-01-04T11:06:40.714Z,13.80
2019-01-04T11:07:40.701Z,8.70
2019-01-04T11:08:40.674Z,4.10
2019-01-04T11:09:40.747Z,2.40
2019-01-04T11:10:40.650Z,5.70
2019-01-04T11:11:40.575Z,5.70
2019-01-04T11:12:40.572Z,2.00
2019-01-04T11:13:40.542Z,5.90
2019-01-04T11:14:40.616Z,4.40
2019-01-04T11:15:40.513Z,6.10
2019-01-04T11:16:40.474Z,10.80
2019-01-04T11:17:40.447Z,11.30
2019-01-04T11:18:40.408Z,7.80
2019-01-04T11:19:40.397Z,13.30
2019-01-04T11:20:40.464Z,6.70
2019-01-04T11:21:40.373Z,5.10
2019-01-04T11:22:40.314Z,11.50
2019-01-04T11:23:40.284Z,11.60
2019-01-04T11:24:40.255Z,11.10
2019-01-04T11:25:40.266Z,53.20
2019-01-04T11:26:40.279Z,43.40
2019-01-04T11:27:40.167Z,56.00
2019-01-04T11:28:40.137Z,35.00
2019-01-04T11:29:40.123Z,8.50
2019-01-04T11:30:40.110Z,6.40
2019-01-04T11:31:40.203Z,2.40
2019-01-04T11:32:40.160Z,5.50
2019-01-04T11:33:40.009Z,5.50
2019-01-04T11:34:39.997Z,4.30
2019-01-04T11:35:39.968Z,5.30
2019-01-04T11:36:39.920Z,9.90
2019-01-04T11:37:39.992Z,3.40
2019-01-04T11:38:39.864Z,6.30
2019-01-04T11:39:39.846Z,5.50
2019-01-04T11:40:39.802Z,3.70
2019-01-04T11:41:39.809Z,2.70
2019-01-04T11:42:39.882Z,7.70
2019-01-04T11:43:39.745Z,4.20
2019-01-04T11:44:39.732Z,7.00
2019-01-04T11:45:39.702Z,4.10
2019-01-04T11:46:39.668Z,3.80
2019-01-04T11:47:39.789Z,3.30
2019-01-04T11:48:39.614Z,3.60
2019-01-04T11:49:39.583Z,5.50
2019-01-04T11:50:39.563Z,2.80
2019-01-04T11:51:39.563Z,5.10
2019-01-04T11:52:39.665Z,7.30
2019-01-04T11:53:39.472Z,8.70
2019-01-04T11:54:39.511Z,6.90
2019-01-04T11:55:39.483Z,8.20
2019-01-04T11:56:39.405Z,5.70
2019-01-04T11:57:40.742Z,5.70
2019-01-04T11:58:39.433Z,6.30
2019-01-04T11:59:39.667Z,2.60
2019-01-04T12:00:39.308Z,3.60
2019-01-04T12:01:39.303Z,6.00
2019-01-04T12:02:39.221Z,5.60
2019-01-04T12:03:39.225Z,3.90
2019-01-04T12:04:39.338Z,6.00
2019-01-04T12:05:39.156Z,3.10
2019-01-04T12:06:39.128Z,5.70
2019-01-04T12:07:39.108Z,2.10
2019-01-04T12:08:39.061Z,4.00
2019-01-04T12:09:39.199Z,2.60
2019-01-04T12:10:39.037Z,4.60
2019-01-04T12:11:39.028Z,3.30
2019-01-04T12:12:38.961Z,6.70
2019-01-04T12:13:38.933Z,3.80
2019-01-04T12:14:41.452Z,4.10
2019-01-04T12:15:38.889Z,3.10
2019-01-04T12:16:38.891Z,4.90
2019-01-04T12:17:38.859Z,7.40
2019-01-04T12:18:38.823Z,6.10
2019-01-04T12:19:39.140Z,8.20
2019-01-04T12:20:38.922Z,3.30
2019-01-04T12:21:38.765Z,2.50
2019-01-04T12:22:38.849Z,5.70
2019-01-04T12:23:38.683Z,5.90
2019-01-04T12:24:38.848Z,2.90
2019-01-04T12:25:38.636Z,7.10
2019-01-04T12:26:38.625Z,6.00
2019-01-04T12:27:38.718Z,9.90
2019-01-04T12:28:38.560Z,2.40
2019-01-04T12:29:38.702Z,5.30
2019-01-04T12:30:38.503Z,4.30
2019-01-04T12:31:38.475Z,4.40
2019-01-04T12:32:38.458Z,3.20
2019-01-04T12:33:38.405Z,2.70
2019-01-04T12:34:38.413Z,5.60
2019-01-04T12:35:38.484Z,7.60
2019-01-04T12:36:38.335Z,3.10
2019-01-04T12:37:38.296Z,1.70
2019-01-04T12:38:38.278Z,3.70
2019-01-04T12:39:38.255Z,5.20
2019-01-04T12:40:38.279Z,4.40
2019-01-04T12:41:39.785Z,2.60
2019-01-04T12:42:38.637Z,4.50
2019-01-04T12:43:39.940Z,2.10
2019-01-04T12:44:39.421Z,3.50
2019-01-04T12:45:40.071Z,8.00
2019-01-04T12:46:39.703Z,3.60
2019-01-04T12:47:40.709Z,3.20
2019-01-04T12:48:38.071Z,6.30
2019-01-04T12:49:39.889Z,8.30
2019-01-04T12:50:39.146Z,1.50
2019-01-04T12:51:39.868Z,1.70
2019-01-04T12:52:39.436Z,7.00
2019-01-04T12:53:38.001Z,5.10
2019-01-04T12:54:37.879Z,4.40
2019-01-04T12:55:37.921Z,7.10
2019-01-04T12:56:37.815Z,3.00
2019-01-04T12:57:37.771Z,5.80
2019-01-04T12:58:37.852Z,4.20
2019-01-04T12:59:37.764Z,7.40
2019-01-04T13:00:37.931Z,5.30
2019-01-04T13:01:37.822Z,4.00
2019-01-04T13:02:37.841Z,3.60
2019-01-04T13:03:37.732Z,4.00
2019-01-04T13:04:37.585Z,6.60
2019-01-04T13:05:37.590Z,3.10
2019-01-04T13:06:37.546Z,4.70
2019-01-04T13:09:37.547Z,6.00
2019-01-04T13:10:37.505Z,6.10
2019-01-04T13:11:37.451Z,1.70
2019-01-04T13:12:37.407Z,4.40